Palembang
Home > Kaskuser Regional > INDONESIA > SUMATERA > Palembang > ▓▓▒▒ Radar Cuaca Palembang dan Sekitarnya ▒▒▓▓
Total Views: 14903 Share : Facebook ShareFacebook Twitter ShareTwitter Google+ ShareGoogle+
Page 64 of 64 | ‹ First  < 59 60 61 62 63 64

dianabazz - 06/10/2012 05:12 PM
#1261

▓▓▒▒ Radar Cuaca Palembang dan Sekitarnya ▒▒▓▓
dianabazz - 06/10/2012 05:14 PM
#1262

T A F O R



FTID32 WIPP 060500
TAF WIPP 060500Z 0606/0706 15010KT 8000 SCT015 TEMPO 0608/0612 09012KT 4000 -TSRA FEW015CB BKN016 TEMPO 0620/0624 00000KT 2000 BR SCT012 BECMG 0701/0703 16007KT 5000 FU SCT015=



Bingung cara bacanya???bingungs
klik aja Cara membaca TAFOR
atau menggunakan decoder diSINI
tapi jangan lupa untuk membuang "TAF" di awal dan "=" di akhir
dianabazz - 06/10/2012 05:15 PM
#1263

▓▓▒▒ Radar Cuaca Palembang dan Sekitarnya ▒▒▓▓
dianabazz - 07/10/2012 09:18 AM
#1264

T A F O R



FTID32 WIPP 062330
TAF WIPP 062330 0700/0724 18005KT 1500 FU SCT012 BECMG 0702/0704 10004KT 8000 SCT015 PROB30 TEMPO 0709/0712 09015KT 4000 -TSRA FEW015CB BKN016 BECMG 0712/0714 13005KT 5000 FU SCT017 TEMPO 0721/0724 18005KT 2000 FU SCT012=



Bingung cara bacanya???bingungs
klik aja Cara membaca TAFOR
atau menggunakan decoder diSINI
tapi jangan lupa untuk membuang "TAF" di awal dan "=" di akhir
dianabazz - 07/10/2012 11:27 AM
#1265

▓▓▒▒ Radar Cuaca Palembang dan Sekitarnya ▒▒▓▓
dianabazz - 08/10/2012 08:30 PM
#1266

T A F O R



FTID32 WIPP 081030
TAF WIPP 081030Z 0812/0912 06006KT 8000 SCT015 TEMPO 0821/0900 00000KT 0800 FG SCT010 BECMG 0900/0902 12008KT 9999 SCT015 TEMPO 0909/0912 09010KT 5000 -TSRA FEW015CB BKN016=



Bingung cara bacanya???bingungs
klik aja Cara membaca TAFOR
atau menggunakan decoder diSINI
tapi jangan lupa untuk membuang "TAF" di awal dan "=" di akhir
dianabazz - 08/10/2012 08:37 PM
#1267

▓▓▒▒ Radar Cuaca Palembang dan Sekitarnya ▒▒▓▓
kaskuscomunity - 10/10/2012 10:39 PM
#1268

besok ujan dak om? eek:
o

mampir denget ngacir:
dianabazz - 11/10/2012 03:37 PM
#1269

Quote:
Original Posted By kaskuscomunity
besok ujan dak om? eek:
o

mampir denget ngacir:


caknyo idak

▓▓▒▒ Radar Cuaca Palembang dan Sekitarnya ▒▒▓▓
dianabazz - 11/10/2012 03:39 PM
#1270

T A F O R



FTID32 WIPP 102330
TAF WIPP 102330Z 1100/1124 12005KT 0800 FG SCT010 BECMG 1101/1103 12007KT 9999 SCT015 PROB30 TEMPO 1109/1112 09012KT 5000 -TSRA FEW020CB SCT015 BECMG 1115/1117 18005KT 4000 HZ FEW015 TEMPO 1121/1124 00000KT 0800 FG SCT010=



Bingung cara bacanya???bingungs
klik aja Cara membaca TAFOR
atau menggunakan decoder diSINI
tapi jangan lupa untuk membuang "TAF" di awal dan "=" di akhir
dianabazz - 11/10/2012 03:46 PM
#1271

▓▓▒▒ Radar Cuaca Palembang dan Sekitarnya ▒▒▓▓
dianabazz - 12/10/2012 08:35 AM
#1272

T A F O R



FTID32 WIPP 112300
TAF WIPP 112300Z 1200/1224 17005KT 4000 HZ FEW012 BECMG 1200/1202 11008KT 8000 SCT015 BECMG 1216/1218 00000KT 2000 HZ FEW015=



Bingung cara bacanya???bingungs
klik aja Cara membaca TAFOR
atau menggunakan decoder diSINI
tapi jangan lupa untuk membuang "TAF" di awal dan "=" di akhir
dianabazz - 12/10/2012 08:37 AM
#1273

▓▓▒▒ Radar Cuaca Palembang dan Sekitarnya ▒▒▓▓
dianabazz - 13/10/2012 08:49 PM
#1274

T A F O R



FTID32 WIPP 130500
TAF WIPP 130500Z 1306/1406 14008KT 7000 BKN015 BECMG 1308/1310 07005KT 6000 FEW015 TEMPO 1320/1401 11004KT 1500 BR BECMG 1401/1403 14008KT 5000 FU SCT015=



Bingung cara bacanya???bingungs
klik aja Cara membaca TAFOR
atau menggunakan decoder diSINI
tapi jangan lupa untuk membuang "TAF" di awal dan "=" di akhir
dianabazz - 13/10/2012 09:01 PM
#1275

▓▓▒▒ Radar Cuaca Palembang dan Sekitarnya ▒▒▓▓
dianabazz - 17/10/2012 10:16 AM
#1276

▓▓▒▒ Radar Cuaca Palembang dan Sekitarnya ▒▒▓▓
dianabazz - 17/10/2012 10:20 AM
#1277

▓▓▒▒ Radar Cuaca Palembang dan Sekitarnya ▒▒▓▓
dianabazz - 18/10/2012 10:27 PM
#1278

▓▓▒▒ Radar Cuaca Palembang dan Sekitarnya ▒▒▓▓
Page 64 of 64 | ‹ First  < 59 60 61 62 63 64
Home > Kaskuser Regional > INDONESIA > SUMATERA > Palembang > ▓▓▒▒ Radar Cuaca Palembang dan Sekitarnya ▒▒▓▓